createdAt,value
2023-04-03T00:00:04.396Z,9.02
2023-04-03T00:02:06.293Z,9.01
2023-04-03T00:04:08.192Z,8.98
2023-04-03T00:06:11.807Z,9.03
2023-04-03T00:08:14.057Z,9.02
2023-04-03T00:10:16.622Z,8.99
2023-04-03T00:12:18.538Z,9.07
2023-04-03T00:14:20.737Z,8.92
2023-04-03T00:16:22.549Z,8.98
2023-04-03T00:18:24.420Z,8.98
2023-04-03T00:20:27.140Z,8.94
2023-04-03T00:22:29.769Z,8.88
2023-04-03T00:24:31.547Z,8.85
2023-04-03T00:26:33.486Z,8.88
2023-04-03T00:28:35.543Z,8.88
2023-04-03T00:30:37.925Z,8.88
2023-04-03T00:32:40.017Z,8.83
2023-04-03T00:34:41.820Z,8.82
2023-04-03T00:36:43.776Z,8.81
2023-04-03T00:38:45.613Z,8.83
2023-04-03T00:40:49.754Z,8.85
2023-04-03T00:42:57.758Z,8.83
2023-04-03T00:45:01.851Z,8.75
2023-04-03T00:47:06.974Z,8.74
2023-04-03T00:49:08.855Z,8.77
2023-04-03T00:51:15.686Z,8.75
2023-04-03T00:53:22.931Z,8.70
2023-04-03T00:55:25.033Z,8.71
2023-04-03T00:57:28.015Z,8.71
2023-04-03T00:59:34.604Z,8.73
2023-04-03T01:01:39.374Z,8.73
2023-04-03T01:03:41.448Z,8.65
2023-04-03T01:05:43.285Z,8.65
2023-04-03T01:07:46.166Z,8.59
2023-04-03T01:09:52.758Z,8.59
2023-04-03T01:11:54.576Z,8.58
2023-04-03T01:13:56.446Z,8.61
2023-04-03T01:15:58.733Z,8.59
2023-04-03T01:18:03.951Z,8.52
2023-04-03T01:20:12.840Z,8.54
2023-04-03T01:22:27.108Z,8.48
2023-04-03T01:24:36.385Z,8.56
2023-04-03T01:26:38.307Z,8.54
2023-04-03T01:28:40.094Z,8.55
2023-04-03T01:30:50.039Z,8.54
2023-04-03T01:32:51.843Z,8.54
2023-04-03T01:34:53.688Z,8.45
2023-04-03T01:36:56.022Z,8.46
2023-04-03T01:39:00.234Z,8.44
2023-04-03T01:41:02.218Z,8.39
2023-04-03T01:43:07.228Z,8.39
2023-04-03T01:45:10.028Z,8.36
2023-04-03T01:47:11.862Z,8.22
2023-04-03T01:49:13.673Z,8.33
2023-04-03T01:51:15.618Z,8.29
2023-04-03T01:53:17.515Z,8.20
2023-04-03T01:55:19.938Z,8.23
2023-04-03T01:57:21.795Z,8.13
2023-04-03T01:59:23.704Z,8.13
2023-04-03T02:01:27.045Z,8.19
2023-04-03T02:03:28.972Z,8.14
2023-04-03T02:05:31.188Z,8.14
2023-04-03T02:07:33.168Z,8.16
2023-04-03T02:09:34.935Z,8.09
2023-04-03T02:11:36.853Z,8.08
2023-04-03T02:13:38.616Z,8.08
2023-04-03T02:15:40.752Z,8.11
2023-04-03T02:17:42.681Z,8.16
2023-04-03T02:19:44.553Z,8.16
2023-04-03T02:21:46.290Z,8.20
2023-04-03T02:23:48.110Z,8.16
2023-04-03T02:25:50.314Z,8.13
2023-04-03T02:27:52.282Z,8.12
2023-04-03T02:29:54.215Z,8.05
2023-04-03T02:31:56.362Z,8.12
2023-04-03T02:33:58.141Z,7.95
2023-04-03T02:36:00.422Z,8.02
2023-04-03T02:38:02.272Z,7.96
2023-04-03T02:40:05.729Z,8.03
2023-04-03T02:42:08.370Z,8.00
2023-04-03T02:44:13.356Z,7.95
2023-04-03T02:46:16.658Z,7.94
2023-04-03T02:48:18.629Z,7.96
2023-04-03T02:50:20.393Z,7.98
2023-04-03T02:52:22.259Z,7.97
2023-04-03T02:54:25.500Z,7.95
2023-04-03T02:56:27.873Z,7.71
2023-04-03T02:58:29.650Z,7.77
2023-04-03T03:00:31.645Z,7.80
2023-04-03T03:02:33.464Z,7.80
2023-04-03T03:04:37.914Z,7.81
2023-04-03T03:06:39.853Z,7.80
2023-04-03T03:08:42.376Z,7.77
2023-04-03T03:10:46.028Z,7.77
2023-04-03T03:12:47.870Z,7.75
2023-04-03T03:14:49.766Z,7.76
2023-04-03T03:16:51.681Z,7.76
2023-04-03T03:18:53.527Z,7.68
2023-04-03T03:20:57.732Z,7.66
2023-04-03T03:22:59.505Z,7.67
2023-04-03T03:25:02.211Z,7.64
2023-04-03T03:27:04.105Z,7.63
2023-04-03T03:29:05.933Z,7.58
2023-04-03T03:31:08.766Z,7.60
2023-04-03T03:33:10.613Z,7.58
2023-04-03T03:35:12.393Z,7.55
2023-04-03T03:37:14.314Z,7.60
2023-04-03T03:39:16.301Z,7.59
2023-04-03T03:41:18.093Z,7.56
2023-04-03T03:43:21.228Z,7.55
2023-04-03T03:45:23.053Z,7.51
2023-04-03T03:47:24.944Z,7.57
2023-04-03T03:49:26.721Z,7.55
2023-04-03T03:51:28.688Z,7.53
2023-04-03T03:53:30.544Z,7.51
2023-04-03T03:55:32.386Z,7.51
2023-04-03T03:57:34.159Z,7.50
2023-04-03T03:59:35.966Z,7.39
2023-04-03T04:01:40.877Z,7.36
2023-04-03T04:03:42.874Z,7.29
2023-04-03T04:05:45.376Z,7.32
2023-04-03T04:07:47.181Z,7.30
2023-04-03T04:09:49.124Z,7.29
2023-04-03T04:11:50.945Z,7.29
2023-04-03T04:13:52.741Z,7.22
2023-04-03T04:15:54.586Z,7.24
2023-04-03T04:17:56.586Z,7.21
2023-04-03T04:19:58.554Z,7.13
2023-04-03T04:22:00.454Z,7.18
2023-04-03T04:24:02.291Z,7.20
2023-04-03T04:26:04.193Z,7.21
2023-04-03T04:28:06.522Z,7.18
2023-04-03T04:30:09.473Z,7.13
2023-04-03T04:32:11.379Z,7.19
2023-04-03T04:34:14.142Z,7.15
2023-04-03T04:36:16.453Z,7.18
2023-04-03T04:38:18.641Z,7.18
2023-04-03T04:40:20.522Z,7.16
2023-04-03T04:42:22.408Z,7.18
2023-04-03T04:44:24.284Z,7.23
2023-04-03T04:46:26.192Z,7.01
2023-04-03T04:48:27.994Z,7.08
2023-04-03T04:50:29.974Z,6.93
2023-04-03T04:52:31.693Z,7.01
2023-04-03T04:54:33.745Z,7.06
2023-04-03T04:56:35.567Z,6.91
2023-04-03T04:58:37.389Z,7.05
2023-04-03T05:00:39.152Z,7.11
2023-04-03T05:02:41.161Z,7.02
2023-04-03T05:04:43.097Z,7.09
2023-04-03T05:06:44.945Z,7.07
2023-04-03T05:08:46.753Z,7.10
2023-04-03T05:10:48.701Z,7.00
2023-04-03T05:12:50.475Z,6.95
2023-04-03T05:14:52.350Z,6.85
2023-04-03T05:16:55.004Z,7.03
2023-04-03T05:18:56.851Z,7.06
2023-04-03T05:20:59.832Z,7.14
2023-04-03T05:23:01.944Z,7.18
2023-04-03T05:25:04.368Z,7.07
2023-04-03T05:27:06.136Z,7.08
2023-04-03T05:29:08.027Z,7.16
2023-04-03T05:31:09.877Z,7.19
2023-04-03T05:33:12.347Z,7.20
2023-04-03T05:35:14.675Z,7.22
2023-04-03T05:37:16.865Z,7.21
2023-04-03T05:39:19.022Z,7.26
2023-04-03T05:41:21.992Z,7.24
2023-04-03T05:43:23.949Z,7.33
2023-04-03T05:45:25.898Z,7.37
2023-04-03T05:47:27.901Z,7.35
2023-04-03T05:49:29.871Z,7.43
2023-04-03T05:51:36.542Z,7.41
2023-04-03T05:53:38.484Z,7.24
2023-04-03T05:55:40.315Z,7.35
2023-04-03T05:57:42.178Z,7.40
2023-04-03T05:59:45.651Z,7.40
2023-04-03T06:01:47.955Z,7.45
2023-04-03T06:03:50.008Z,7.32
2023-04-03T06:05:52.071Z,7.38
2023-04-03T06:07:53.913Z,7.40
2023-04-03T06:09:57.620Z,7.47
2023-04-03T06:11:59.926Z,7.51
2023-04-03T06:14:01.841Z,7.57
2023-04-03T06:16:05.076Z,7.60
2023-04-03T06:18:08.009Z,7.63
2023-04-03T06:20:11.080Z,7.66
2023-04-03T06:22:13.063Z,7.67
2023-04-03T06:24:17.272Z,7.73
2023-04-03T06:26:19.140Z,7.76
2023-04-03T06:28:21.049Z,7.78
2023-04-03T06:30:23.046Z,7.81
2023-04-03T06:32:24.951Z,7.77
2023-04-03T06:34:26.998Z,7.72
2023-04-03T06:36:29.154Z,7.75
2023-04-03T06:38:31.227Z,7.73
2023-04-03T06:40:33.214Z,7.76
2023-04-03T06:42:35.249Z,7.71
2023-04-03T06:44:37.126Z,7.80
2023-04-03T06:46:40.169Z,7.84
2023-04-03T06:48:44.974Z,7.76
2023-04-03T06:50:46.843Z,7.88
2023-04-03T06:52:48.727Z,7.91
2023-04-03T06:54:52.861Z,7.89
2023-04-03T06:56:54.750Z,7.92
2023-04-03T06:58:58.744Z,7.89
2023-04-03T07:01:01.319Z,7.94
2023-04-03T07:03:03.927Z,7.96
2023-04-03T07:05:07.153Z,7.92
2023-04-03T07:07:09.523Z,8.05
2023-04-03T07:09:12.437Z,8.05
2023-04-03T07:11:14.602Z,8.12
2023-04-03T07:13:16.785Z,8.07
2023-04-03T07:15:18.857Z,8.09
2023-04-03T07:17:21.209Z,8.16
2023-04-03T07:19:23.257Z,8.21
2023-04-03T07:21:25.554Z,8.19
2023-04-03T07:23:28.907Z,8.27
2023-04-03T07:25:31.207Z,8.26
2023-04-03T07:27:35.082Z,8.35
2023-04-03T07:29:37.379Z,8.42
2023-04-03T07:31:41.005Z,8.38
2023-04-03T07:33:43.610Z,8.25
2023-04-03T07:35:46.379Z,8.24
2023-04-03T07:37:48.385Z,8.21
2023-04-03T07:39:50.445Z,8.33
2023-04-03T07:41:52.626Z,8.43
2023-04-03T07:43:54.721Z,8.50
2023-04-03T07:45:57.106Z,8.49
2023-04-03T07:47:59.147Z,8.60
2023-04-03T07:50:01.070Z,8.61
2023-04-03T07:52:04.600Z,8.72
2023-04-03T07:54:06.764Z,8.77
2023-04-03T07:56:09.225Z,8.67
2023-04-03T07:58:12.145Z,8.73
2023-04-03T08:00:15.123Z,8.79
2023-04-03T08:02:17.070Z,8.82
2023-04-03T08:04:19.201Z,8.79
2023-04-03T08:06:29.380Z,8.80
2023-04-03T08:08:36.654Z,8.89
2023-04-03T08:10:38.875Z,8.92
2023-04-03T08:12:41.048Z,9.03
2023-04-03T08:14:42.973Z,8.99
2023-04-03T08:16:46.862Z,9.14
2023-04-03T08:18:49.360Z,9.15
2023-04-03T08:20:52.760Z,9.22
2023-04-03T08:22:55.058Z,9.29
2023-04-03T08:24:59.251Z,9.33
2023-04-03T08:27:02.192Z,9.38
2023-04-03T08:29:04.655Z,9.40
2023-04-03T08:31:16.626Z,9.32
2023-04-03T08:33:18.657Z,9.35
2023-04-03T08:35:21.648Z,9.38
2023-04-03T08:37:23.655Z,9.27
2023-04-03T08:39:26.091Z,9.40
2023-04-03T08:41:34.304Z,9.49
2023-04-03T08:43:43.767Z,9.51
2023-04-03T08:45:51.798Z,9.59
2023-04-03T08:48:01.893Z,9.62
2023-04-03T08:50:10.828Z,9.74
2023-04-03T08:52:16.714Z,9.77
2023-04-03T08:54:28.417Z,9.90
2023-04-03T08:56:32.561Z,9.95
2023-04-03T08:58:47.015Z,9.97
2023-04-03T09:00:59.127Z,10.01
2023-04-03T09:03:01.575Z,10.06
2023-04-03T09:05:13.836Z,10.19
2023-04-03T09:07:32.815Z,10.21
2023-04-03T09:09:42.419Z,10.19
2023-04-03T09:11:54.576Z,10.26
2023-04-03T09:14:04.198Z,10.40
2023-04-03T09:16:21.586Z,10.49
2023-04-03T09:18:37.103Z,10.49
2023-04-03T09:20:45.079Z,10.59
2023-04-03T09:22:52.165Z,10.72
2023-04-03T09:25:18.175Z,10.83
2023-04-03T09:27:20.183Z,10.82
2023-04-03T09:29:24.909Z,10.92
2023-04-03T09:31:30.726Z,10.95
2023-04-03T09:33:32.935Z,10.94
2023-04-03T09:35:47.329Z,10.85
2023-04-03T09:37:53.109Z,10.90
2023-04-03T09:39:57.167Z,11.07
2023-04-03T09:42:04.786Z,11.07
2023-04-03T09:44:22.962Z,11.22
2023-04-03T09:46:36.074Z,11.30
2023-04-03T09:48:40.850Z,11.35
2023-04-03T09:50:51.900Z,11.44
2023-04-03T09:52:53.869Z,11.52
2023-04-03T09:55:09.790Z,11.37
2023-04-03T09:57:14.504Z,11.37
2023-04-03T09:59:18.134Z,11.41
2023-04-03T10:01:31.991Z,11.69
2023-04-03T10:03:36.895Z,11.76
2023-04-03T10:05:42.720Z,11.73
2023-04-03T10:07:51.498Z,11.48
2023-04-03T10:10:00.304Z,11.58
2023-04-03T10:12:07.036Z,11.51
2023-04-03T10:14:18.555Z,11.48
2023-04-03T10:16:28.652Z,11.46
2023-04-03T10:18:34.415Z,11.30
2023-04-03T10:20:41.003Z,11.11
2023-04-03T10:22:52.997Z,11.17
2023-04-03T10:25:12.203Z,11.22
2023-04-03T10:27:19.800Z,11.33
2023-04-03T10:29:32.704Z,11.40
2023-04-03T10:31:50.371Z,11.53
2023-04-03T10:34:11.828Z,11.70
2023-04-03T10:36:26.056Z,11.84
2023-04-03T10:38:29.489Z,11.92
2023-04-03T10:40:36.219Z,11.81
2023-04-03T10:42:38.726Z,11.64
2023-04-03T10:44:55.729Z,11.77
2023-04-03T10:47:07.910Z,11.79
2023-04-03T10:49:21.420Z,12.18
2023-04-03T10:51:30.935Z,12.14
2023-04-03T10:53:52.725Z,12.29
2023-04-03T10:56:08.219Z,12.28
2023-04-03T10:58:24.589Z,12.02
2023-04-03T11:00:38.964Z,12.22
2023-04-03T11:03:09.814Z,12.26
2023-04-03T11:05:40.992Z,12.17
2023-04-03T11:07:49.138Z,12.12
2023-04-03T11:09:59.818Z,12.16
2023-04-03T11:12:11.300Z,12.17
2023-04-03T11:14:27.400Z,12.29
2023-04-03T11:16:37.872Z,12.37
2023-04-03T11:18:55.141Z,12.46
2023-04-03T11:21:05.350Z,12.56
2023-04-03T11:23:17.353Z,12.58
2023-04-03T11:25:24.592Z,12.89
2023-04-03T11:27:28.734Z,13.07
2023-04-03T11:29:41.927Z,13.24
2023-04-03T11:31:50.764Z,13.56
2023-04-03T11:34:00.368Z,13.75
2023-04-03T11:36:19.036Z,13.72
2023-04-03T11:38:35.920Z,13.78
2023-04-03T11:40:39.686Z,13.89
2023-04-03T11:42:44.026Z,13.91
2023-04-03T11:44:46.169Z,13.73
2023-04-03T11:46:58.298Z,13.82
2023-04-03T11:49:00.452Z,13.82
2023-04-03T11:51:23.628Z,13.92
2023-04-03T11:53:30.439Z,14.08
2023-04-03T11:55:32.736Z,13.93
2023-04-03T11:57:46.257Z,13.98
2023-04-03T11:59:48.350Z,14.05
2023-04-03T12:01:50.774Z,14.23
2023-04-03T12:03:53.167Z,14.28
2023-04-03T12:06:00.751Z,14.34
2023-04-03T12:08:21.754Z,14.60
2023-04-03T12:12:36.676Z,14.22
2023-04-03T12:14:41.464Z,14.43
2023-04-03T12:16:47.318Z,14.52
2023-04-03T12:18:50.701Z,14.69
2023-04-03T12:20:53.457Z,14.79
2023-04-03T12:23:09.008Z,14.93
2023-04-03T12:25:44.225Z,15.34
2023-04-03T12:27:46.296Z,15.41
2023-04-03T12:29:50.720Z,15.18
2023-04-03T12:32:15.628Z,15.14
2023-04-03T12:34:40.252Z,15.38
2023-04-03T12:36:59.967Z,15.68
2023-04-03T12:39:12.447Z,15.68
2023-04-03T12:41:19.953Z,15.29
2023-04-03T12:43:30.036Z,14.97
2023-04-03T12:45:42.441Z,14.51
2023-04-03T12:47:46.131Z,14.85
2023-04-03T12:49:53.211Z,14.97
2023-04-03T12:51:56.163Z,15.02
2023-04-03T12:54:03.786Z,15.16
2023-04-03T12:56:24.666Z,15.36
2023-04-03T12:58:27.880Z,15.67
2023-04-03T13:00:34.544Z,15.84
2023-04-03T13:02:36.913Z,15.70
2023-04-03T13:04:39.800Z,15.88
2023-04-03T13:06:44.902Z,15.61
2023-04-03T13:08:54.070Z,15.55
2023-04-03T13:11:02.504Z,15.76
2023-04-03T13:13:16.479Z,15.83
2023-04-03T13:15:29.587Z,16.00
2023-04-03T13:17:33.225Z,16.05
2023-04-03T13:19:35.562Z,16.24
2023-04-03T13:21:37.766Z,16.07
2023-04-03T13:23:46.023Z,16.03
2023-04-03T13:25:49.452Z,16.05
2023-04-03T13:27:53.834Z,15.78
2023-04-03T13:30:02.696Z,15.79
2023-04-03T13:32:06.705Z,15.54
2023-04-03T13:34:12.595Z,15.64
2023-04-03T13:36:21.681Z,15.60
2023-04-03T13:38:32.590Z,15.34
2023-04-03T13:40:47.050Z,15.59
2023-04-03T13:43:01.328Z,15.34
2023-04-03T13:45:21.060Z,15.47
2023-04-03T13:47:25.758Z,15.68
2023-04-03T13:49:37.168Z,15.80
2023-04-03T13:51:40.304Z,15.76
2023-04-03T13:53:49.669Z,16.12
2023-04-03T13:55:58.695Z,16.21
2023-04-03T13:58:10.159Z,16.15
2023-04-03T14:00:30.694Z,16.06
2023-04-03T14:02:34.760Z,15.66
2023-04-03T14:04:45.358Z,15.63
2023-04-03T14:06:47.642Z,15.74
2023-04-03T14:08:50.364Z,16.07
2023-04-03T14:10:52.888Z,15.82
2023-04-03T14:12:54.886Z,16.24
2023-04-03T14:14:57.243Z,16.33
2023-04-03T14:17:02.585Z,16.67
2023-04-03T14:19:04.847Z,16.85
2023-04-03T14:21:06.961Z,16.90
2023-04-03T14:23:10.290Z,17.05
2023-04-03T14:25:13.291Z,17.39
2023-04-03T14:27:28.201Z,17.20
2023-04-03T14:29:30.090Z,17.27
2023-04-03T14:31:32.184Z,17.65
2023-04-03T14:33:36.859Z,17.91
2023-04-03T14:35:38.856Z,18.20
2023-04-03T14:37:41.338Z,18.43
2023-04-03T14:39:43.993Z,18.70
2023-04-03T14:41:49.430Z,18.28
2023-04-03T14:43:54.569Z,17.88
2023-04-03T14:45:56.763Z,17.95
2023-04-03T14:48:00.152Z,18.02
2023-04-03T14:50:04.327Z,17.96
2023-04-03T14:52:06.968Z,18.17
2023-04-03T14:54:22.692Z,17.71
2023-04-03T14:56:28.418Z,17.19
2023-04-03T14:58:33.008Z,17.28
2023-04-03T15:00:35.218Z,17.13
2023-04-03T15:02:39.940Z,17.46
2023-04-03T15:04:42.226Z,17.67
2023-04-03T15:06:45.247Z,17.99
2023-04-03T15:08:48.746Z,17.73
2023-04-03T15:10:51.209Z,17.62
2023-04-03T15:12:53.686Z,17.19
2023-04-03T15:15:01.138Z,17.20
2023-04-03T15:17:07.252Z,17.30
2023-04-03T15:19:09.282Z,16.45
2023-04-03T15:21:11.712Z,16.98
2023-04-03T15:23:16.969Z,17.42
2023-04-03T15:25:19.391Z,17.39
2023-04-03T15:27:21.460Z,17.55
2023-04-03T15:29:23.431Z,17.75
2023-04-03T15:31:25.447Z,17.75
2023-04-03T15:33:27.540Z,17.86
2023-04-03T15:35:29.618Z,18.17
2023-04-03T15:37:31.960Z,18.08
2023-04-03T15:39:34.000Z,18.18
2023-04-03T15:41:36.323Z,17.43
2023-04-03T15:43:38.261Z,18.01
2023-04-03T15:45:41.924Z,17.76
2023-04-03T15:47:44.377Z,17.59
2023-04-03T15:49:46.478Z,17.79
2023-04-03T15:51:48.431Z,17.85
2023-04-03T15:53:50.696Z,17.98
2023-04-03T15:55:52.625Z,17.73
2023-04-03T15:57:55.157Z,17.49
2023-04-03T15:59:57.741Z,17.91
2023-04-03T16:02:02.549Z,17.78
2023-04-03T16:04:05.679Z,17.56
2023-04-03T16:06:10.724Z,17.57
2023-04-03T16:08:13.676Z,17.64
2023-04-03T16:10:18.320Z,17.89
2023-04-03T16:12:20.620Z,17.65
2023-04-03T16:14:22.593Z,17.46
2023-04-03T16:16:28.401Z,17.38
2023-04-03T16:18:35.448Z,17.22
2023-04-03T16:20:38.522Z,17.19
2023-04-03T16:22:41.457Z,17.36
2023-04-03T16:24:43.577Z,17.38
2023-04-03T16:26:45.837Z,17.22
2023-04-03T16:28:47.924Z,16.62
2023-04-03T16:30:50.721Z,16.38
2023-04-03T16:32:53.097Z,16.37
2023-04-03T16:34:55.101Z,16.50
2023-04-03T16:36:57.312Z,16.54
2023-04-03T16:38:59.288Z,16.62
2023-04-03T16:41:05.505Z,16.56
2023-04-03T16:43:07.592Z,16.52
2023-04-03T16:45:10.174Z,16.49
2023-04-03T16:47:13.957Z,16.17
2023-04-03T16:49:16.789Z,16.34
2023-04-03T16:51:18.890Z,15.67
2023-04-03T16:53:22.069Z,15.73
2023-04-03T16:55:24.129Z,15.62
2023-04-03T16:57:26.237Z,15.52
2023-04-03T16:59:28.450Z,15.40
2023-04-03T17:01:30.750Z,14.64
2023-04-03T17:03:33.580Z,14.48
2023-04-03T17:05:36.080Z,14.89
2023-04-03T17:07:38.167Z,14.75
2023-04-03T17:09:40.114Z,14.41
2023-04-03T17:11:42.697Z,14.58
2023-04-03T17:13:46.984Z,14.45
2023-04-03T17:15:49.309Z,14.51
2023-04-03T17:17:53.354Z,14.51
2023-04-03T17:19:56.761Z,14.62
2023-04-03T17:21:59.503Z,14.38
2023-04-03T17:24:04.683Z,14.50
2023-04-03T17:26:06.809Z,14.40
2023-04-03T17:28:09.054Z,14.32
2023-04-03T17:30:11.841Z,14.45
2023-04-03T17:32:13.971Z,14.47
2023-04-03T17:34:16.255Z,14.12
2023-04-03T17:36:18.373Z,14.06
2023-04-03T17:38:20.389Z,14.08
2023-04-03T17:40:22.343Z,14.01
2023-04-03T17:42:24.307Z,13.69
2023-04-03T17:44:26.451Z,13.90
2023-04-03T17:46:28.646Z,13.82
2023-04-03T17:48:32.347Z,13.93
2023-04-03T17:50:34.373Z,13.80
2023-04-03T17:52:36.430Z,13.46
2023-04-03T17:54:38.468Z,13.32
2023-04-03T17:56:40.589Z,13.34
2023-04-03T17:58:42.862Z,13.13
2023-04-03T18:00:45.126Z,13.20
2023-04-03T18:02:47.116Z,13.11
2023-04-03T18:04:53.282Z,13.06
2023-04-03T18:06:56.177Z,12.93
2023-04-03T18:09:09.089Z,12.87
2023-04-03T18:11:11.447Z,12.64
2023-04-03T18:13:14.843Z,12.61
2023-04-03T18:15:17.982Z,12.82
2023-04-03T18:17:19.951Z,12.65
2023-04-03T18:19:23.463Z,12.88
2023-04-03T18:21:26.144Z,12.98
2023-04-03T18:23:31.325Z,12.92
2023-04-03T18:27:40.787Z,12.48
2023-04-03T18:29:45.598Z,12.45
2023-04-03T18:31:53.032Z,12.36
2023-04-03T18:33:59.135Z,12.30
2023-04-03T18:36:05.066Z,12.26
2023-04-03T18:38:07.101Z,12.11
2023-04-03T18:40:10.412Z,12.10
2023-04-03T18:42:17.250Z,11.90
2023-04-03T18:44:23.058Z,11.92
2023-04-03T18:46:25.204Z,12.02
2023-04-03T18:48:28.152Z,12.02
2023-04-03T18:50:31.888Z,12.05
2023-04-03T18:52:34.241Z,11.97
2023-04-03T18:54:37.553Z,11.85
2023-04-03T18:56:39.583Z,11.94
2023-04-03T18:58:41.663Z,11.90
2023-04-03T19:00:43.818Z,11.90
2023-04-03T19:02:46.391Z,11.83
2023-04-03T19:04:48.931Z,11.70
2023-04-03T19:06:51.773Z,11.70
2023-04-03T19:08:54.030Z,11.71
2023-04-03T19:10:56.076Z,11.62
2023-04-03T19:12:58.178Z,11.59
2023-04-03T19:15:00.198Z,11.49
2023-04-03T19:17:04.212Z,11.65
2023-04-03T19:19:06.667Z,11.59
2023-04-03T19:21:08.789Z,11.49
2023-04-03T19:23:10.993Z,11.40
2023-04-03T19:25:13.310Z,11.18
2023-04-03T19:27:15.392Z,11.40
2023-04-03T19:29:18.061Z,11.49
2023-04-03T19:31:22.390Z,11.46
2023-04-03T19:33:25.875Z,11.42
2023-04-03T19:35:28.045Z,11.46
2023-04-03T19:37:30.573Z,11.28
2023-04-03T19:39:35.367Z,11.38
2023-04-03T19:41:38.318Z,11.13
2023-04-03T19:43:40.538Z,11.18
2023-04-03T19:45:44.138Z,11.26
2023-04-03T19:47:47.310Z,11.14
2023-04-03T19:49:49.493Z,11.20
2023-04-03T19:51:51.546Z,11.15
2023-04-03T19:53:53.756Z,11.20
2023-04-03T19:55:57.437Z,11.27
2023-04-03T19:58:00.904Z,11.08
2023-04-03T20:00:03.272Z,10.97
2023-04-03T20:02:05.690Z,10.55
2023-04-03T20:04:08.263Z,10.79
2023-04-03T20:06:10.359Z,10.77
2023-04-03T20:08:12.628Z,10.91
2023-04-03T20:10:16.456Z,10.78
2023-04-03T20:12:18.738Z,10.73
2023-04-03T20:14:21.104Z,10.88
2023-04-03T20:16:26.071Z,10.79
2023-04-03T20:18:28.923Z,10.77
2023-04-03T20:20:31.192Z,10.83
2023-04-03T20:22:39.870Z,10.73
2023-04-03T20:24:42.114Z,10.74
2023-04-03T20:26:46.562Z,10.64
2023-04-03T20:28:48.970Z,10.73
2023-04-03T20:30:52.686Z,10.58
2023-04-03T20:32:55.965Z,10.54
2023-04-03T20:35:04.460Z,10.63
2023-04-03T20:37:07.087Z,10.48
2023-04-03T20:39:09.444Z,10.55
2023-04-03T20:41:11.561Z,10.47
2023-04-03T20:43:13.658Z,10.43
2023-04-03T20:45:15.838Z,10.52
2023-04-03T20:47:18.454Z,10.49
2023-04-03T20:49:21.339Z,10.51
2023-04-03T20:51:24.351Z,10.47
2023-04-03T20:53:27.393Z,10.44
2023-04-03T20:55:30.117Z,10.47
2023-04-03T20:57:33.982Z,10.43
2023-04-03T20:59:39.617Z,10.42
2023-04-03T21:01:41.733Z,10.46
2023-04-03T21:03:46.444Z,10.38
2023-04-03T21:05:48.517Z,10.44
2023-04-03T21:08:10.952Z,10.41
2023-04-03T21:10:32.643Z,10.30
2023-04-03T21:12:53.532Z,10.38
2023-04-03T21:15:14.847Z,10.37
2023-04-03T21:17:16.893Z,10.43
2023-04-03T21:19:20.505Z,10.41
2023-04-03T21:21:24.747Z,10.51
2023-04-03T21:23:28.582Z,10.49
2023-04-03T21:25:30.975Z,10.45
2023-04-03T21:27:32.923Z,10.41
2023-04-03T21:29:34.938Z,10.40
2023-04-03T21:31:58.071Z,10.41
2023-04-03T21:34:00.911Z,10.33
2023-04-03T21:36:03.501Z,10.31
2023-04-03T21:38:05.936Z,10.39
2023-04-03T21:40:08.686Z,10.40
2023-04-03T21:42:10.654Z,10.39
2023-04-03T21:44:12.645Z,10.42
2023-04-03T21:46:14.591Z,10.45
2023-04-03T21:48:20.636Z,10.38
2023-04-03T21:50:22.625Z,10.45
2023-04-03T21:52:24.641Z,10.40
2023-04-03T21:54:26.672Z,10.45
2023-04-03T21:56:29.052Z,10.37
2023-04-03T21:58:32.537Z,10.23
2023-04-03T22:00:34.747Z,10.27
2023-04-03T22:02:41.111Z,10.24
2023-04-03T22:04:43.203Z,10.15
2023-04-03T22:06:46.032Z,10.26
2023-04-03T22:08:48.176Z,10.17
2023-04-03T22:10:50.160Z,10.18
2023-04-03T22:12:52.593Z,10.13
2023-04-03T22:14:54.605Z,10.02
2023-04-03T22:16:57.923Z,9.98
2023-04-03T22:18:59.949Z,10.04
2023-04-03T22:21:02.179Z,9.96
2023-04-03T22:23:04.924Z,9.88
2023-04-03T22:25:07.796Z,9.85
2023-04-03T22:27:09.736Z,9.74
2023-04-03T22:29:13.317Z,9.76
2023-04-03T22:31:16.543Z,9.80
2023-04-03T22:33:18.935Z,9.74
2023-04-03T22:35:21.603Z,9.72
2023-04-03T22:37:23.515Z,9.74
2023-04-03T22:39:25.379Z,9.73
2023-04-03T22:41:27.360Z,9.56
2023-04-03T22:43:33.595Z,9.64
2023-04-03T22:45:35.718Z,9.61
2023-04-03T22:47:38.089Z,9.45
2023-04-03T22:49:40.009Z,9.43
2023-04-03T22:51:41.969Z,9.51
2023-04-03T22:53:43.956Z,9.59
2023-04-03T22:55:55.564Z,9.54
2023-04-03T22:57:57.512Z,9.60
2023-04-03T22:59:59.357Z,9.52
2023-04-03T23:02:01.632Z,9.52
2023-04-03T23:04:03.883Z,9.58
2023-04-03T23:06:06.714Z,9.50
2023-04-03T23:08:08.683Z,9.49
2023-04-03T23:10:12.080Z,9.46
2023-04-03T23:12:14.026Z,9.47
2023-04-03T23:14:15.929Z,9.49
2023-04-03T23:16:19.260Z,9.37
2023-04-03T23:18:21.886Z,9.36
2023-04-03T23:20:23.933Z,9.40
2023-04-03T23:22:26.059Z,9.38
2023-04-03T23:24:28.392Z,9.27
2023-04-03T23:26:30.415Z,9.33
2023-04-03T23:28:33.570Z,9.23
2023-04-03T23:30:35.621Z,9.24
2023-04-03T23:32:37.657Z,9.29
2023-04-03T23:34:39.638Z,9.18
2023-04-03T23:36:41.647Z,9.17
2023-04-03T23:38:43.582Z,9.19
2023-04-03T23:40:46.406Z,9.22
2023-04-03T23:42:48.393Z,9.16
2023-04-03T23:44:50.270Z,9.18
2023-04-03T23:46:52.271Z,9.16
2023-04-03T23:48:54.095Z,9.16
2023-04-03T23:50:56.325Z,9.21
2023-04-03T23:52:58.338Z,9.19
2023-04-03T23:55:00.199Z,9.17
2023-04-03T23:57:02.061Z,9.12
2023-04-03T23:59:04.063Z,9.10
